createdAt,value
2018-07-21T00:01:06.477Z,8.40
2018-07-21T00:03:34.636Z,7.90
2018-07-21T00:06:02.754Z,8.00
2018-07-21T00:08:30.882Z,7.90
2018-07-21T00:10:58.982Z,8.47
2018-07-21T00:13:27.153Z,8.80
2018-07-21T00:15:55.265Z,8.10
2018-07-21T00:18:23.159Z,7.50
2018-07-21T00:20:51.281Z,7.53
2018-07-21T00:23:19.406Z,7.97
2018-07-21T00:25:47.532Z,8.30
2018-07-21T00:28:15.639Z,7.50
2018-07-21T00:30:43.751Z,7.93
2018-07-21T00:33:11.853Z,8.67
2018-07-21T00:35:39.965Z,8.30
2018-07-21T00:38:08.092Z,8.60
2018-07-21T00:40:36.217Z,8.13
2018-07-21T00:43:04.349Z,8.50
2018-07-21T00:45:32.469Z,8.23
2018-07-21T00:48:00.682Z,8.13
2018-07-21T00:50:29.146Z,8.20
2018-07-21T00:52:57.263Z,8.07
2018-07-21T00:55:25.392Z,7.63
2018-07-21T00:57:53.599Z,7.03
2018-07-21T01:00:21.731Z,7.50
2018-07-21T01:02:49.851Z,7.50
2018-07-21T01:05:18.161Z,7.33
2018-07-21T01:07:46.303Z,7.93
2018-07-21T01:12:49.001Z,7.70
2018-07-21T01:15:17.163Z,8.30
2018-07-21T01:17:45.285Z,6.97
2018-07-21T01:20:13.441Z,7.67
2018-07-21T01:22:42.359Z,7.10
2018-07-21T01:25:10.462Z,7.27
2018-07-21T01:27:38.553Z,7.17
2018-07-21T01:30:07.157Z,7.90
2018-07-21T01:32:35.311Z,6.97
2018-07-21T01:35:03.420Z,6.80
2018-07-21T01:37:31.515Z,6.97
2018-07-21T01:39:59.695Z,6.90
2018-07-21T01:42:27.822Z,6.90
2018-07-21T01:44:55.916Z,7.00
2018-07-21T01:47:24.024Z,6.77
2018-07-21T01:49:52.128Z,7.07
2018-07-21T01:52:20.253Z,6.87
2018-07-21T01:54:48.346Z,6.77
2018-07-21T01:57:16.439Z,6.10
2018-07-21T01:59:44.550Z,7.33
2018-07-21T02:02:12.660Z,7.37
2018-07-21T02:04:40.759Z,6.40
2018-07-21T02:07:08.899Z,7.30
2018-07-21T02:09:37.006Z,6.60
2018-07-21T02:12:05.098Z,6.57
2018-07-21T02:14:33.217Z,6.57
2018-07-21T02:17:01.326Z,7.03
2018-07-21T02:19:29.428Z,6.63
2018-07-21T02:21:57.548Z,6.97
2018-07-21T02:24:25.671Z,7.57
2018-07-21T02:26:53.758Z,7.00
2018-07-21T02:29:21.860Z,7.57
2018-07-21T02:31:49.978Z,6.60
2018-07-21T02:34:18.129Z,7.20
2018-07-21T02:36:46.233Z,7.37
2018-07-21T02:39:14.387Z,6.97
2018-07-21T02:41:42.505Z,7.47
2018-07-21T02:44:10.602Z,7.07
2018-07-21T02:46:38.722Z,6.23
2018-07-21T02:49:06.820Z,7.00
2018-07-21T02:51:34.913Z,7.87
2018-07-21T02:54:03.271Z,7.40
2018-07-21T02:56:31.379Z,6.47
2018-07-21T02:58:59.560Z,6.90
2018-07-21T03:01:27.833Z,7.10
2018-07-21T03:03:56.022Z,7.90
2018-07-21T03:06:24.127Z,7.70
2018-07-21T03:08:52.230Z,7.00
2018-07-21T03:11:20.340Z,6.73
2018-07-21T03:13:48.473Z,7.00
2018-07-21T03:16:16.584Z,7.53
2018-07-21T03:18:44.707Z,6.70
2018-07-21T03:21:12.816Z,7.50
2018-07-21T03:23:40.924Z,8.10
2018-07-21T03:26:09.126Z,7.00
2018-07-21T03:28:37.246Z,6.87
2018-07-21T03:31:05.373Z,5.93
2018-07-21T03:33:33.465Z,7.20
2018-07-21T03:36:01.631Z,6.70
2018-07-21T03:38:29.734Z,7.00
2018-07-21T03:40:57.870Z,6.50
2018-07-21T03:43:25.976Z,7.20
2018-07-21T03:45:54.191Z,6.80
2018-07-21T03:48:22.304Z,7.50
2018-07-21T03:50:50.424Z,6.57
2018-07-21T03:53:18.538Z,7.43
2018-07-21T03:55:46.661Z,7.80
2018-07-21T03:58:14.772Z,6.80
2018-07-21T04:00:42.918Z,6.37
2018-07-21T04:03:11.014Z,7.30
2018-07-21T04:05:39.136Z,7.53
2018-07-21T04:08:07.254Z,8.10
2018-07-21T04:10:35.412Z,7.10
2018-07-21T04:13:03.527Z,8.03
2018-07-21T04:15:31.687Z,8.33
2018-07-21T04:17:59.799Z,8.20
2018-07-21T04:20:27.919Z,7.83
2018-07-21T04:22:56.038Z,7.80
2018-07-21T04:25:24.160Z,8.03
2018-07-21T04:27:52.355Z,8.37
2018-07-21T04:30:20.457Z,7.40
2018-07-21T04:32:48.579Z,7.53
2018-07-21T04:35:16.688Z,7.50
2018-07-21T04:37:44.769Z,6.43
2018-07-21T04:40:12.899Z,7.50
2018-07-21T04:42:40.992Z,7.00
2018-07-21T04:45:09.102Z,7.90
2018-07-21T04:47:37.197Z,7.80
2018-07-21T04:50:05.304Z,7.70
2018-07-21T04:52:33.415Z,6.73
2018-07-21T04:55:01.620Z,7.57
2018-07-21T04:57:29.710Z,7.03
2018-07-21T04:59:57.792Z,6.83
2018-07-21T05:02:25.882Z,7.50
2018-07-21T05:04:54.009Z,6.90
2018-07-21T05:07:22.197Z,7.63
2018-07-21T05:09:50.276Z,8.13
2018-07-21T05:12:18.379Z,6.83
2018-07-21T05:14:46.479Z,6.57
2018-07-21T05:17:14.594Z,7.73
2018-07-21T05:19:42.688Z,8.10
2018-07-21T05:22:10.807Z,8.20
2018-07-21T05:24:38.916Z,7.90
2018-07-21T05:27:07.010Z,8.20
2018-07-21T05:29:35.119Z,7.90
2018-07-21T05:32:03.310Z,7.50
2018-07-21T05:34:31.412Z,8.20
2018-07-21T05:36:59.574Z,7.57
2018-07-21T05:39:27.658Z,6.43
2018-07-21T05:41:55.797Z,7.03
2018-07-21T05:44:23.877Z,7.47
2018-07-21T05:46:52.016Z,6.97
2018-07-21T05:49:20.110Z,6.90
2018-07-21T05:51:48.259Z,6.20
2018-07-21T05:54:16.367Z,6.40
2018-07-21T05:56:44.470Z,6.23
2018-07-21T05:59:12.576Z,6.07
2018-07-21T06:01:40.675Z,6.87
2018-07-21T06:04:09.064Z,5.80
2018-07-21T06:06:37.314Z,5.97
2018-07-21T06:09:07.237Z,6.17
2018-07-21T06:11:35.347Z,6.33
2018-07-21T06:14:03.523Z,5.80
2018-07-21T06:16:31.630Z,5.63
2018-07-21T06:18:59.794Z,6.20
2018-07-21T06:21:27.923Z,5.37
2018-07-21T06:26:30.825Z,6.90
2018-07-21T06:28:58.985Z,5.70
2018-07-21T06:31:27.078Z,5.90
2018-07-21T06:33:55.192Z,6.10
2018-07-21T06:36:23.539Z,6.07
2018-07-21T06:38:51.646Z,5.83
2018-07-21T06:41:19.759Z,6.40
2018-07-21T06:43:47.904Z,6.20
2018-07-21T06:46:16.060Z,6.07
2018-07-21T06:48:44.184Z,7.03
2018-07-21T06:51:12.343Z,5.70
2018-07-21T06:53:40.481Z,6.23
2018-07-21T06:56:08.584Z,6.10
2018-07-21T06:58:36.722Z,6.00
2018-07-21T07:01:04.865Z,6.10
2018-07-21T07:03:33.016Z,6.50
2018-07-21T07:06:01.210Z,7.77
2018-07-21T07:08:29.339Z,6.83
2018-07-21T07:10:57.476Z,6.90
2018-07-21T07:13:25.596Z,6.63
2018-07-21T07:15:53.728Z,8.40
2018-07-21T07:18:21.848Z,7.57
2018-07-21T07:20:50.026Z,7.17
2018-07-21T07:23:18.159Z,6.90
2018-07-21T07:25:46.277Z,7.20
2018-07-21T07:28:14.401Z,7.40
2018-07-21T07:30:43.889Z,6.57
2018-07-21T07:33:12.084Z,7.53
2018-07-21T07:35:41.346Z,7.43
2018-07-21T07:38:09.484Z,6.53
2018-07-21T07:40:37.617Z,7.20
2018-07-21T07:43:06.150Z,7.27
2018-07-21T07:45:34.261Z,7.40
2018-07-21T07:48:02.379Z,6.90
2018-07-21T07:50:30.541Z,7.97
2018-07-21T07:52:58.914Z,7.87
2018-07-21T07:55:31.598Z,7.80
2018-07-21T07:58:00.502Z,8.00
2018-07-21T08:00:29.003Z,7.20
2018-07-21T08:02:57.182Z,7.37
2018-07-21T08:05:25.284Z,6.40
2018-07-21T08:07:53.430Z,7.50
2018-07-21T08:10:21.537Z,7.50
2018-07-21T08:12:50.476Z,7.33
2018-07-21T08:15:19.050Z,7.13
2018-07-21T08:17:47.152Z,6.60
2018-07-21T08:20:15.371Z,6.80
2018-07-21T08:22:43.471Z,6.10
2018-07-21T08:25:11.681Z,7.20
2018-07-21T08:27:40.132Z,6.60
2018-07-21T08:30:09.734Z,6.90
2018-07-21T08:32:37.975Z,7.33
2018-07-21T08:35:06.599Z,7.10
2018-07-21T08:37:35.612Z,5.80
2018-07-21T08:40:04.337Z,7.10
2018-07-21T08:42:32.536Z,6.20
2018-07-21T08:45:00.827Z,6.63
2018-07-21T08:47:28.950Z,6.30
2018-07-21T08:49:57.146Z,6.80
2018-07-21T08:52:25.185Z,8.17
2018-07-21T08:54:53.184Z,6.07
2018-07-21T08:57:25.221Z,6.77
2018-07-21T08:59:53.317Z,8.83
2018-07-21T09:02:21.468Z,6.90
2018-07-21T09:04:49.659Z,6.73
2018-07-21T09:07:18.467Z,6.30
2018-07-21T09:09:46.552Z,7.10
2018-07-21T09:12:14.686Z,7.10
2018-07-21T09:14:42.803Z,6.83
2018-07-21T09:17:10.964Z,8.53
2018-07-21T09:19:39.079Z,6.73
2018-07-21T09:22:07.201Z,6.30
2018-07-21T09:24:35.324Z,7.00
2018-07-21T09:27:03.458Z,8.60
2018-07-21T09:29:31.920Z,7.47
2018-07-21T09:32:00.228Z,6.90
2018-07-21T09:34:28.425Z,6.87
2018-07-21T09:36:56.543Z,6.60
2018-07-21T09:39:24.428Z,6.33
2018-07-21T09:41:52.551Z,6.97
2018-07-21T09:44:20.692Z,6.27
2018-07-21T09:46:48.874Z,6.13
2018-07-21T09:49:17.093Z,5.97
2018-07-21T09:51:45.478Z,5.87
2018-07-21T09:54:13.590Z,7.23
2018-07-21T09:56:41.694Z,6.30
2018-07-21T09:59:09.834Z,6.17
2018-07-21T10:01:37.963Z,7.07
2018-07-21T10:04:06.089Z,6.50
2018-07-21T10:06:34.203Z,6.27
2018-07-21T10:09:02.327Z,5.90
2018-07-21T10:11:30.489Z,6.30
2018-07-21T10:13:58.396Z,6.53
2018-07-21T10:16:26.483Z,6.33
2018-07-21T10:18:54.604Z,6.07
2018-07-21T10:21:22.716Z,6.47
2018-07-21T10:23:50.923Z,6.30
2018-07-21T10:26:24.558Z,6.50
2018-07-21T10:28:58.329Z,5.60
2018-07-21T10:31:26.489Z,5.87
2018-07-21T10:33:54.608Z,6.43
2018-07-21T10:36:22.706Z,6.00
2018-07-21T10:38:58.999Z,6.93
2018-07-21T10:41:27.224Z,5.93
2018-07-21T10:43:55.339Z,6.10
2018-07-21T10:46:23.450Z,6.70
2018-07-21T10:48:51.771Z,6.70
2018-07-21T10:51:19.873Z,6.80
2018-07-21T10:53:47.999Z,6.13
2018-07-21T10:56:16.105Z,6.53
2018-07-21T10:58:44.244Z,6.20
2018-07-21T11:01:12.343Z,6.00
2018-07-21T11:03:40.455Z,6.00
2018-07-21T11:06:08.606Z,6.10
2018-07-21T11:08:36.729Z,6.57
2018-07-21T11:11:04.860Z,7.17
2018-07-21T11:13:33.014Z,6.10
2018-07-21T11:16:01.163Z,6.30
2018-07-21T11:18:29.297Z,5.90
2018-07-21T11:20:57.411Z,7.00
2018-07-21T11:23:25.758Z,6.80
2018-07-21T11:25:53.883Z,7.33
2018-07-21T11:28:21.990Z,6.77
2018-07-21T11:30:50.224Z,7.93
2018-07-21T11:33:18.336Z,8.43
2018-07-21T11:35:46.670Z,7.27
2018-07-21T11:38:14.563Z,6.90
2018-07-21T11:40:42.706Z,7.43
2018-07-21T11:43:10.820Z,7.10
2018-07-21T11:45:39.027Z,6.93
2018-07-21T11:48:07.171Z,7.47
2018-07-21T11:50:35.317Z,6.17
2018-07-21T11:53:03.442Z,7.53
2018-07-21T11:55:31.565Z,7.63
2018-07-21T11:57:59.711Z,7.80
2018-07-21T12:00:27.871Z,7.37
2018-07-21T12:02:56.013Z,6.80
2018-07-21T12:05:24.282Z,6.60
2018-07-21T12:07:52.345Z,7.13
2018-07-21T12:10:20.484Z,7.37
2018-07-21T12:12:48.653Z,7.60
2018-07-21T12:15:16.785Z,6.63
2018-07-21T12:17:44.907Z,7.07
2018-07-21T12:20:13.139Z,7.30
2018-07-21T12:22:41.287Z,7.63
2018-07-21T12:25:09.407Z,7.23
2018-07-21T12:27:37.549Z,8.00
2018-07-21T12:30:05.650Z,7.67
2018-07-21T12:32:33.766Z,7.37
2018-07-21T12:35:02.012Z,7.23
2018-07-21T12:37:30.129Z,7.30
2018-07-21T12:39:58.300Z,7.50
2018-07-21T12:42:26.395Z,7.30
2018-07-21T12:44:54.614Z,8.23
2018-07-21T12:47:22.710Z,7.80
2018-07-21T12:49:50.844Z,7.03
2018-07-21T12:52:19.097Z,7.47
2018-07-21T12:54:47.218Z,7.90
2018-07-21T12:57:15.386Z,8.47
2018-07-21T12:59:43.590Z,7.27
2018-07-21T13:02:11.765Z,7.17
2018-07-21T13:04:40.007Z,8.13
2018-07-21T13:07:08.106Z,7.57
2018-07-21T13:09:36.305Z,7.03
2018-07-21T13:12:04.429Z,8.00
2018-07-21T13:14:32.620Z,8.00
2018-07-21T13:17:00.783Z,7.50
2018-07-21T13:19:29.188Z,6.57
2018-07-21T13:21:57.296Z,7.30
2018-07-21T13:24:25.416Z,7.50
2018-07-21T13:26:53.570Z,7.77
2018-07-21T13:29:21.742Z,8.07
2018-07-21T13:31:49.870Z,7.23
2018-07-21T13:34:17.988Z,7.17
2018-07-21T13:36:46.208Z,8.07
2018-07-21T13:39:14.319Z,6.33
2018-07-21T13:41:42.443Z,8.80
2018-07-21T13:44:10.627Z,7.67
2018-07-21T13:46:38.727Z,7.60
2018-07-21T13:49:06.900Z,6.97
2018-07-21T13:51:35.000Z,8.17
2018-07-21T13:54:03.176Z,8.20
2018-07-21T13:56:31.727Z,7.43
2018-07-21T13:59:00.252Z,7.40
2018-07-21T14:01:28.432Z,8.37
2018-07-21T14:03:56.616Z,8.40
2018-07-21T14:06:24.756Z,7.80
2018-07-21T14:08:52.867Z,8.60
2018-07-21T14:11:21.087Z,7.57
2018-07-21T14:13:49.267Z,7.60
2018-07-21T14:16:17.390Z,8.87
2018-07-21T14:18:45.487Z,8.20
2018-07-21T14:21:13.618Z,13.08
2018-07-21T14:23:41.792Z,7.90
2018-07-21T14:26:09.963Z,8.27
2018-07-21T14:28:38.097Z,9.40
2018-07-21T14:31:06.273Z,8.90
2018-07-21T14:33:34.398Z,8.40
2018-07-21T14:36:02.693Z,8.57
2018-07-21T14:38:30.950Z,8.40
2018-07-21T14:40:59.086Z,8.50
2018-07-21T14:43:27.212Z,9.30
2018-07-21T14:45:55.343Z,8.93
2018-07-21T14:48:23.452Z,9.70
2018-07-21T14:50:51.538Z,9.30
2018-07-21T14:53:19.702Z,9.30
2018-07-21T14:55:47.859Z,8.97
2018-07-21T14:58:15.987Z,8.87
2018-07-21T15:00:44.164Z,9.10
2018-07-21T15:03:12.378Z,9.80
2018-07-21T15:05:40.478Z,9.93
2018-07-21T15:08:08.592Z,9.27
2018-07-21T15:10:36.698Z,9.83
2018-07-21T15:13:04.947Z,9.00
2018-07-21T15:15:33.047Z,9.03
2018-07-21T15:18:01.182Z,9.70
2018-07-21T15:20:29.376Z,9.10
2018-07-21T15:22:57.606Z,9.90
2018-07-21T15:25:25.726Z,9.33
2018-07-21T15:27:54.004Z,10.00
2018-07-21T15:30:22.180Z,9.40
2018-07-21T15:32:50.298Z,9.93
2018-07-21T15:35:18.409Z,9.20
2018-07-21T15:37:46.613Z,9.30
2018-07-21T15:40:14.793Z,9.40
2018-07-21T15:42:42.904Z,9.47
2018-07-21T15:45:10.998Z,8.87
2018-07-21T15:47:39.234Z,8.53
2018-07-21T15:50:07.361Z,8.67
2018-07-21T15:52:35.549Z,8.27
2018-07-21T15:55:03.740Z,8.80
2018-07-21T15:57:32.178Z,8.50
2018-07-21T16:00:00.325Z,7.80
2018-07-21T16:02:28.489Z,8.80
2018-07-21T16:04:56.556Z,9.07
2018-07-21T16:07:24.778Z,8.30
2018-07-21T16:09:52.942Z,7.80
2018-07-21T16:12:21.057Z,8.10
2018-07-21T16:14:49.284Z,8.20
2018-07-21T16:17:18.611Z,7.53
2018-07-21T16:19:51.947Z,8.27
2018-07-21T16:22:20.218Z,8.57
2018-07-21T16:24:48.650Z,8.17
2018-07-21T16:27:16.879Z,8.80
2018-07-21T16:29:44.982Z,8.53
2018-07-21T16:32:13.363Z,7.63
2018-07-21T16:34:42.583Z,8.77
2018-07-21T16:37:11.531Z,8.13
2018-07-21T16:39:40.110Z,8.50
2018-07-21T16:42:08.331Z,8.67
2018-07-21T16:44:36.478Z,8.03
2018-07-21T16:47:04.915Z,7.40
2018-07-21T16:49:33.037Z,7.30
2018-07-21T16:52:01.195Z,8.50
2018-07-21T16:54:29.341Z,8.13
2018-07-21T16:56:57.512Z,8.33
2018-07-21T16:59:25.634Z,8.43
2018-07-21T17:01:53.742Z,7.30
2018-07-21T17:04:21.887Z,7.10
2018-07-21T17:06:50.028Z,7.90
2018-07-21T17:09:18.194Z,7.77
2018-07-21T17:11:46.314Z,7.63
2018-07-21T17:14:14.450Z,7.90
2018-07-21T17:16:42.553Z,8.77
2018-07-21T17:19:10.783Z,7.83
2018-07-21T17:21:38.803Z,8.30
2018-07-21T17:24:06.949Z,8.50
2018-07-21T17:26:35.067Z,7.47
2018-07-21T17:29:03.231Z,8.70
2018-07-21T17:31:31.550Z,8.00
2018-07-21T17:34:07.253Z,7.30
2018-07-21T17:36:35.394Z,8.27
2018-07-21T17:39:04.641Z,7.80
2018-07-21T17:41:33.024Z,8.17
2018-07-21T17:44:01.122Z,7.73
2018-07-21T17:46:29.230Z,7.30
2018-07-21T17:48:57.330Z,7.40
2018-07-21T17:51:25.479Z,7.83
2018-07-21T17:53:53.588Z,7.47
2018-07-21T17:56:22.197Z,8.07
2018-07-21T17:58:50.377Z,8.40
2018-07-21T18:01:18.777Z,8.10
2018-07-21T18:03:46.883Z,8.07
2018-07-21T18:06:15.007Z,7.43
2018-07-21T18:08:43.131Z,7.97
2018-07-21T18:11:11.263Z,8.40
2018-07-21T18:13:39.422Z,8.63
2018-07-21T18:16:07.569Z,8.60
2018-07-21T18:18:35.661Z,7.67
2018-07-21T18:21:03.774Z,9.20
2018-07-21T18:23:31.871Z,8.27
2018-07-21T18:25:59.984Z,8.57
2018-07-21T18:28:28.129Z,7.27
2018-07-21T18:30:56.257Z,8.30
2018-07-21T18:33:24.440Z,7.70
2018-07-21T18:35:52.550Z,9.40
2018-07-21T18:38:20.640Z,7.97
2018-07-21T18:40:48.751Z,7.80
2018-07-21T18:43:16.834Z,8.97
2018-07-21T18:45:44.931Z,7.87
2018-07-21T18:48:13.047Z,9.27
2018-07-21T18:50:41.156Z,8.27
2018-07-21T18:53:09.263Z,8.70
2018-07-21T18:55:37.415Z,7.77
2018-07-21T18:58:05.516Z,8.47
2018-07-21T19:00:33.649Z,8.80
2018-07-21T19:03:01.759Z,7.77
2018-07-21T19:05:29.911Z,8.60
2018-07-21T19:07:58.065Z,8.17
2018-07-21T19:10:27.157Z,8.33
2018-07-21T19:12:55.336Z,8.03
2018-07-21T19:15:29.022Z,8.47
2018-07-21T19:17:57.158Z,8.40
2018-07-21T19:21:34.436Z,8.23
2018-07-21T19:24:02.521Z,8.30
2018-07-21T19:26:36.190Z,7.70
2018-07-21T19:29:04.320Z,8.37
2018-07-21T19:31:32.449Z,8.70
2018-07-21T19:34:00.546Z,8.70
2018-07-21T19:36:28.703Z,8.70
2018-07-21T19:38:56.910Z,8.43
2018-07-21T19:41:30.469Z,8.53
2018-07-21T19:43:58.711Z,7.80
2018-07-21T19:46:28.014Z,8.30
2018-07-21T19:48:56.138Z,7.67
2018-07-21T19:51:24.290Z,8.70
2018-07-21T19:53:52.411Z,8.47
2018-07-21T19:56:20.328Z,8.30
2018-07-21T19:58:48.436Z,8.30
2018-07-21T20:01:16.568Z,8.50
2018-07-21T20:03:44.690Z,8.90
2018-07-21T20:06:12.820Z,8.67
2018-07-21T20:08:41.006Z,8.83
2018-07-21T20:11:09.127Z,9.23
2018-07-21T20:13:37.046Z,9.83
2018-07-21T20:16:05.373Z,9.77
2018-07-21T20:18:33.549Z,8.93
2018-07-21T20:21:01.746Z,9.00
2018-07-21T20:23:29.787Z,9.57
2018-07-21T20:25:57.903Z,9.53
2018-07-21T20:28:26.010Z,9.30
2018-07-21T20:30:54.143Z,9.13
2018-07-21T20:33:22.248Z,9.67
2018-07-21T20:35:50.378Z,11.30
2018-07-21T20:38:18.557Z,9.47
2018-07-21T20:40:46.742Z,10.70
2018-07-21T20:43:14.810Z,10.10
2018-07-21T20:45:42.953Z,10.70
2018-07-21T20:48:11.056Z,10.80
2018-07-21T20:50:39.221Z,10.60
2018-07-21T20:53:07.352Z,10.27
2018-07-21T20:55:35.510Z,10.47
2018-07-21T20:58:03.623Z,9.50
2018-07-21T21:00:32.347Z,10.43
2018-07-21T21:03:00.802Z,9.67
2018-07-21T21:05:28.915Z,9.90
2018-07-21T21:07:57.043Z,9.20
2018-07-21T21:10:25.217Z,10.30
2018-07-21T21:12:53.716Z,9.70
2018-07-21T21:15:21.868Z,10.70
2018-07-21T21:17:49.980Z,9.47
2018-07-21T21:20:18.088Z,9.73
2018-07-21T21:22:46.274Z,10.17
2018-07-21T21:25:14.654Z,11.23
2018-07-21T21:27:43.520Z,10.00
2018-07-21T21:30:11.634Z,10.40
2018-07-21T21:32:39.830Z,10.00
2018-07-21T21:35:08.319Z,10.77
2018-07-21T21:37:36.478Z,9.37
2018-07-21T21:40:04.683Z,10.50
2018-07-21T21:42:32.808Z,10.10
2018-07-21T21:45:01.023Z,9.30
2018-07-21T21:47:29.305Z,9.83
2018-07-21T21:49:57.430Z,11.20
2018-07-21T21:52:25.567Z,9.53
2018-07-21T21:54:53.654Z,10.57
2018-07-21T21:57:21.777Z,10.40
2018-07-21T21:59:51.699Z,10.80
2018-07-21T22:02:19.836Z,10.50
2018-07-21T22:04:47.997Z,10.20
2018-07-21T22:07:16.124Z,10.10
2018-07-21T22:09:44.206Z,9.73
2018-07-21T22:12:12.101Z,10.10
2018-07-21T22:14:40.204Z,10.03
2018-07-21T22:17:08.338Z,9.97
2018-07-21T22:19:36.454Z,10.30
2018-07-21T22:22:04.902Z,11.27
2018-07-21T22:24:33.055Z,10.30
2018-07-21T22:27:01.203Z,11.17
2018-07-21T22:29:29.348Z,10.27
2018-07-21T22:31:58.095Z,10.27
2018-07-21T22:34:26.151Z,10.50
2018-07-21T22:36:54.220Z,9.53
2018-07-21T22:39:22.338Z,9.90
2018-07-21T22:41:50.458Z,10.33
2018-07-21T22:44:18.618Z,10.73
2018-07-21T22:46:46.757Z,11.37
2018-07-21T22:49:14.868Z,11.17
2018-07-21T22:51:43.144Z,11.03
2018-07-21T22:54:11.327Z,11.10
2018-07-21T22:56:39.472Z,10.27
2018-07-21T22:59:07.814Z,10.93
2018-07-21T23:01:35.933Z,11.47
2018-07-21T23:04:04.067Z,10.00
2018-07-21T23:06:32.191Z,11.03
2018-07-21T23:09:00.456Z,11.10
2018-07-21T23:11:28.655Z,11.50
2018-07-21T23:13:56.929Z,10.70
2018-07-21T23:16:25.046Z,11.00
2018-07-21T23:18:53.204Z,11.67
2018-07-21T23:21:21.298Z,11.70
2018-07-21T23:23:49.417Z,11.63
2018-07-21T23:26:17.542Z,12.40
2018-07-21T23:28:45.837Z,12.97
2018-07-21T23:31:13.973Z,12.13
2018-07-21T23:33:42.099Z,12.57
2018-07-21T23:36:10.212Z,13.30
2018-07-21T23:38:38.346Z,12.73
2018-07-21T23:41:06.985Z,12.03
2018-07-21T23:43:35.156Z,12.77
2018-07-21T23:46:03.284Z,13.67
2018-07-21T23:48:31.391Z,11.93
2018-07-21T23:50:59.515Z,11.73
2018-07-21T23:53:27.614Z,12.00
2018-07-21T23:55:55.738Z,13.30
2018-07-21T23:58:23.860Z,12.50
